createdAt,value
2022-08-26T19:36:18.176Z,100409.44
2022-08-26T19:38:45.481Z,100420.22
2022-08-26T19:41:17.541Z,100428.44
2022-08-26T19:43:43.902Z,100432.22
2022-08-26T19:46:15.348Z,100427.22
2022-08-26T19:48:44.034Z,100437.25
2022-08-26T19:51:24.444Z,100439.97
2022-08-26T19:53:52.409Z,100433.50
2022-08-26T19:56:18.851Z,100435.13
2022-08-26T19:58:45.340Z,100433.06
2022-08-26T20:01:13.250Z,100430.09
2022-08-26T20:03:40.736Z,100429.66
2022-08-26T20:06:09.417Z,100423.41
2022-08-26T20:08:36.747Z,100425.53
2022-08-26T20:11:05.391Z,100429.88
2022-08-26T20:13:32.651Z,100429.66
2022-08-26T20:15:59.198Z,100432.38
2022-08-26T20:18:44.044Z,100428.00
2022-08-26T20:21:29.234Z,100431.78
2022-08-26T20:24:05.998Z,100439.94
2022-08-26T20:26:34.794Z,100437.00
2022-08-26T20:29:01.399Z,100433.81
2022-08-26T20:31:28.199Z,100438.00
2022-08-26T20:33:55.243Z,100439.03
2022-08-26T20:36:23.314Z,100431.09
2022-08-26T20:38:50.045Z,100433.00
2022-08-26T20:41:17.017Z,100444.09
2022-08-26T20:43:43.635Z,100440.94
2022-08-26T20:46:18.003Z,100442.59
2022-08-26T20:48:47.359Z,100436.72
2022-08-26T20:51:13.601Z,100438.97
2022-08-26T20:53:40.002Z,100444.00
2022-08-26T20:56:08.976Z,100453.22
2022-08-26T20:58:36.216Z,100460.28
2022-08-26T21:01:07.299Z,100462.13
2022-08-26T21:03:34.149Z,100466.31
2022-08-26T21:06:00.357Z,100475.94
2022-08-26T21:08:26.545Z,100478.88
2022-08-26T21:10:52.715Z,100480.53
2022-08-26T21:13:18.931Z,100472.84
2022-08-26T21:15:45.477Z,100474.72
2022-08-26T21:18:12.087Z,100476.38
2022-08-26T21:20:38.325Z,100488.47
2022-08-26T21:23:05.865Z,100486.81
2022-08-26T21:25:32.013Z,100473.47
2022-08-26T21:27:58.163Z,100457.63
2022-08-26T21:30:24.315Z,100458.94
2022-08-26T21:32:50.483Z,100449.72
2022-08-26T21:35:16.628Z,100443.25
2022-08-26T21:37:42.802Z,100429.28
2022-08-26T21:40:10.155Z,100429.28
2022-08-26T21:42:36.589Z,100415.91
2022-08-26T21:45:03.921Z,100413.84
2022-08-26T21:47:32.150Z,100422.69
2022-08-26T21:49:59.023Z,100430.03
2022-08-26T21:52:25.246Z,100425.63
2022-08-26T21:54:51.380Z,100425.41
2022-08-26T21:57:18.593Z,100420.59
2022-08-26T21:59:44.757Z,100415.16
2022-08-26T22:02:10.982Z,100408.09
2022-08-26T22:04:37.431Z,100413.28
2022-08-26T22:07:03.659Z,100398.66
2022-08-26T22:09:33.140Z,100401.97
2022-08-26T22:12:00.514Z,100411.63
2022-08-26T22:14:30.607Z,100413.94
2022-08-26T22:16:58.289Z,100412.28
2022-08-26T22:19:25.297Z,100408.94
2022-08-26T22:21:53.401Z,100403.34
2022-08-26T22:24:21.696Z,100391.19
2022-08-26T22:26:48.860Z,100383.88
2022-08-26T22:29:16.256Z,100373.25
2022-08-26T22:31:42.528Z,100372.19
2022-08-26T22:34:11.541Z,100362.00
2022-08-26T22:36:43.973Z,100358.88
2022-08-26T22:39:11.250Z,100366.41
2022-08-26T22:41:37.437Z,100364.38
2022-08-26T22:44:04.243Z,100363.72
2022-08-26T22:46:30.467Z,100369.22
2022-08-26T22:48:56.649Z,100383.66
2022-08-26T22:51:23.195Z,100389.13
2022-08-26T22:53:49.664Z,100384.13
2022-08-26T22:56:18.362Z,100379.94
2022-08-26T22:58:44.496Z,100382.44
2022-08-26T23:01:10.700Z,100379.09
2022-08-26T23:03:36.954Z,100378.06
2022-08-26T23:06:06.393Z,100376.59
2022-08-26T23:08:32.537Z,100370.56
2022-08-26T23:10:58.684Z,100373.06
2022-08-26T23:13:24.824Z,100368.44
2022-08-26T23:16:02.380Z,100372.28
2022-08-26T23:18:28.822Z,100358.50
2022-08-26T23:20:55.916Z,100354.97
2022-08-26T23:23:22.826Z,100360.81
2022-08-26T23:25:49.918Z,100362.72
2022-08-26T23:28:16.817Z,100362.91
2022-08-26T23:30:43.595Z,100367.31
2022-08-26T23:33:09.739Z,100356.06
2022-08-26T23:35:35.898Z,100362.50
2022-08-26T23:38:04.995Z,100362.50
2022-08-26T23:40:33.572Z,100357.91
2022-08-26T23:43:03.411Z,100365.84
2022-08-26T23:45:30.490Z,100371.28
2022-08-26T23:47:56.767Z,100374.38
2022-08-26T23:50:48.637Z,100375.22
2022-08-26T23:53:20.085Z,100369.97
2022-08-26T23:55:51.187Z,100370.19
2022-08-26T23:58:19.041Z,100369.31
